createdAt,value
2019-04-01T00:00:19.264Z,26
2019-04-01T00:01:28.596Z,26.4
2019-04-01T00:02:37.664Z,26.3
2019-04-01T00:03:46.891Z,26.4
2019-04-01T00:04:56.081Z,26.3
2019-04-01T00:06:05.398Z,26.4
2019-04-01T00:07:14.460Z,26.8
2019-04-01T00:08:23.641Z,26.8
2019-04-01T00:09:32.843Z,27
2019-04-01T00:10:43.153Z,27.3
2019-04-01T00:11:52.347Z,27.6
2019-04-01T00:13:01.538Z,27.6
2019-04-01T00:14:10.898Z,28.1
2019-04-01T00:15:19.925Z,28
2019-04-01T00:16:29.204Z,27.9
2019-04-01T00:17:38.350Z,28
2019-04-01T00:19:03.539Z,29
2019-04-01T00:19:58.331Z,28.6
2019-04-01T00:21:07.502Z,28.6
2019-04-01T00:22:16.693Z,28.9
2019-04-01T00:23:25.868Z,28.6
2019-04-01T00:24:35.093Z,28.3
2019-04-01T00:25:44.257Z,28.4
2019-04-01T00:26:53.451Z,28.4
2019-04-01T00:28:02.790Z,28.2
2019-04-01T00:29:11.821Z,28.1
2019-04-01T00:30:21.086Z,28.6
2019-04-01T00:31:30.477Z,29.3
2019-04-01T00:33:48.565Z,29.6
2019-04-01T00:34:57.748Z,30.4
2019-04-01T00:36:06.948Z,30.9
2019-04-01T00:37:16.171Z,31.4
2019-04-01T00:38:25.371Z,31.5
2019-04-01T00:39:34.490Z,32.3
2019-04-01T00:40:43.684Z,33.2
2019-04-01T00:41:52.998Z,32.7
2019-04-01T00:43:02.075Z,33.2
2019-04-01T00:44:11.241Z,33.3
2019-04-01T00:45:20.472Z,33.9
2019-04-01T00:46:29.658Z,33.8
2019-04-01T00:47:38.790Z,34.2
2019-04-01T00:48:47.933Z,34.3
2019-04-01T00:49:57.147Z,34.4
2019-04-01T00:51:06.382Z,34.7
2019-04-01T00:52:15.460Z,33.8
2019-04-01T00:53:24.624Z,33.2
2019-04-01T00:54:33.806Z,33.8
2019-04-01T00:55:42.998Z,34
2019-04-01T00:56:53.298Z,34.3
2019-04-01T00:58:02.478Z,35.7
2019-04-01T00:59:11.678Z,35.1
2019-04-01T01:00:21.065Z,35.1
2019-04-01T01:01:30.028Z,35.4
2019-04-01T01:02:39.176Z,36.5
2019-04-01T01:03:48.338Z,36.3
2019-04-01T01:04:57.521Z,36.8
2019-04-01T01:06:06.671Z,39.2
2019-04-01T01:07:15.870Z,37.5
2019-04-01T01:08:25.073Z,37.7
2019-04-01T01:09:34.190Z,37.3
2019-04-01T01:10:43.373Z,36
2019-04-01T01:11:52.538Z,36.3
2019-04-01T01:13:01.713Z,37.2
2019-04-01T01:14:10.872Z,36.7
2019-04-01T01:15:20.058Z,36.9
2019-04-01T01:16:29.261Z,37.8
2019-04-01T01:17:38.389Z,37.7
2019-04-01T01:18:47.856Z,37.7
2019-04-01T01:19:56.740Z,37.7
2019-04-01T01:21:05.942Z,38.4
2019-04-01T01:22:15.083Z,39.3
2019-04-01T01:23:24.251Z,40.2
2019-04-01T01:24:33.477Z,40.2
2019-04-01T01:25:42.556Z,37.4
2019-04-01T01:26:51.762Z,37
2019-04-01T01:28:00.889Z,38.7
2019-04-01T01:29:10.076Z,39
2019-04-01T01:30:19.230Z,38.7
2019-04-01T01:31:28.410Z,41.1
2019-04-01T01:32:37.609Z,40.3
2019-04-01T01:33:46.750Z,40
2019-04-01T01:34:55.889Z,40.4
2019-04-01T01:36:05.060Z,37.6
2019-04-01T01:37:14.349Z,38.4
2019-04-01T01:38:23.422Z,37.9
2019-04-01T01:39:32.570Z,38
2019-04-01T01:40:41.740Z,37.7
2019-04-01T01:41:50.915Z,37.8
2019-04-01T01:43:00.127Z,38.7
2019-04-01T01:44:09.277Z,38.7
2019-04-01T01:45:18.408Z,38.7
2019-04-01T01:46:27.575Z,39
2019-04-01T01:47:36.805Z,40.1
2019-04-01T01:48:45.936Z,40.1
2019-04-01T01:49:55.116Z,40.9
2019-04-01T01:51:04.254Z,42.3
2019-04-01T01:52:13.423Z,43.1
2019-04-01T01:53:22.639Z,41.6
2019-04-01T01:54:31.776Z,41.1
2019-04-01T01:55:40.921Z,40.9
2019-04-01T01:56:50.133Z,42.1
2019-04-01T01:57:59.275Z,43.1
2019-04-01T01:59:08.438Z,43.5
2019-04-01T02:00:17.698Z,45.6
2019-04-01T02:01:26.768Z,45.3
2019-04-01T02:02:35.922Z,46
2019-04-01T02:03:45.136Z,48.4
2019-04-01T02:04:54.272Z,44.7
2019-04-01T02:06:03.465Z,44.4
2019-04-01T02:07:12.616Z,41.8
2019-04-01T02:08:21.779Z,42
2019-04-01T02:09:30.916Z,41.4
2019-04-01T02:10:40.093Z,42
2019-04-01T02:11:49.406Z,41.4
2019-04-01T02:12:58.422Z,40.7
2019-04-01T02:14:07.637Z,42.7
2019-04-01T02:15:16.894Z,42.5
2019-04-01T02:16:25.929Z,41.7
2019-04-01T02:17:35.147Z,42.4
2019-04-01T02:18:44.270Z,41.5
2019-04-01T02:21:02.698Z,41.9
2019-04-01T02:22:11.827Z,41.7
2019-04-01T02:23:21.077Z,41.6
2019-04-01T02:24:30.120Z,41.4
2019-04-01T02:25:39.286Z,45.1
2019-04-01T02:26:48.464Z,42.3
2019-04-01T02:27:57.628Z,44.9
2019-04-01T02:29:06.804Z,44.9
2019-04-01T02:30:15.983Z,42.9
2019-04-01T02:31:25.116Z,42.1
2019-04-01T02:32:34.296Z,41
2019-04-01T02:33:43.464Z,41.9
2019-04-01T02:34:52.753Z,42.8
2019-04-01T02:36:01.874Z,41.6
2019-04-01T02:37:11.040Z,40.8
2019-04-01T02:38:20.121Z,39.9
2019-04-01T02:39:29.285Z,39.9
2019-04-01T02:40:38.459Z,40.6
2019-04-01T02:41:47.625Z,41.5
2019-04-01T02:42:56.837Z,40.3
2019-04-01T02:44:06.096Z,39
2019-04-01T02:45:15.177Z,38.7
2019-04-01T02:46:24.330Z,38.8
2019-04-01T02:47:33.512Z,39
2019-04-01T02:48:42.736Z,40.3
2019-04-01T02:49:51.850Z,40.3
2019-04-01T02:51:01.228Z,40.1
2019-04-01T02:52:10.209Z,40.1
2019-04-01T02:53:19.384Z,41.4
2019-04-01T02:54:28.613Z,40.4
2019-04-01T02:55:37.745Z,42
2019-04-01T02:56:46.964Z,42.2
2019-04-01T02:57:56.129Z,40.8
2019-04-01T02:59:05.425Z,39.8
2019-04-01T03:00:14.467Z,40.8
2019-04-01T03:01:23.623Z,40.1
2019-04-01T03:02:32.798Z,40.6
2019-04-01T03:03:41.992Z,41.8
2019-04-01T03:04:51.257Z,41.7
2019-04-01T03:06:00.431Z,41.7
2019-04-01T03:07:09.642Z,41.6
2019-04-01T03:08:18.701Z,42.2
2019-04-01T03:09:27.862Z,41.9
2019-04-01T03:10:37.071Z,41
2019-04-01T03:11:46.238Z,39.8
2019-04-01T03:12:55.388Z,38.6
2019-04-01T03:14:04.557Z,37.9
2019-04-01T03:15:13.740Z,37.5
2019-04-01T03:16:22.899Z,38
2019-04-01T03:17:32.079Z,41.9
2019-04-01T03:18:41.242Z,38.1
2019-04-01T03:19:50.463Z,38
2019-04-01T03:20:59.618Z,38.5
2019-04-01T03:22:08.851Z,40.4
2019-04-01T03:23:18.057Z,40.4
2019-04-01T03:24:27.149Z,38.9
2019-04-01T03:25:36.426Z,39.3
2019-04-01T03:26:45.588Z,38.6
2019-04-01T03:27:54.688Z,39.2
2019-04-01T03:29:03.862Z,39.7
2019-04-01T03:30:13.105Z,40.9
2019-04-01T03:31:22.423Z,42
2019-04-01T03:32:31.396Z,41
2019-04-01T03:33:40.850Z,40.3
2019-04-01T03:34:49.942Z,39.7
2019-04-01T03:35:58.952Z,40.4
2019-04-01T03:37:08.141Z,39.8
2019-04-01T03:38:17.328Z,39.7
2019-04-01T03:39:26.499Z,42.4
2019-04-01T03:40:35.750Z,39.3
2019-04-01T03:41:44.905Z,39.3
2019-04-01T03:42:54.052Z,39.5
2019-04-01T03:44:03.255Z,39.9
2019-04-01T03:45:12.417Z,40.9
2019-04-01T03:46:21.603Z,41.9
2019-04-01T03:47:30.783Z,41.9
2019-04-01T03:48:39.986Z,41.8
2019-04-01T03:49:49.269Z,41.9
2019-04-01T03:50:58.413Z,42.2
2019-04-01T03:52:10.693Z,42.1
2019-04-01T03:53:16.722Z,40.6
2019-04-01T03:54:25.892Z,40
2019-04-01T03:55:35.041Z,40
2019-04-01T03:56:44.231Z,40.3
2019-04-01T03:57:53.429Z,40.2
2019-04-01T03:59:02.596Z,41
2019-04-01T04:00:11.783Z,40
2019-04-01T04:01:20.931Z,39.7
2019-04-01T04:02:30.111Z,39.1
2019-04-01T04:03:39.347Z,39
2019-04-01T04:04:48.482Z,39.3
2019-04-01T04:05:58.870Z,39.4
2019-04-01T04:07:08.005Z,39.9
2019-04-01T04:08:17.218Z,42.2
2019-04-01T04:09:26.654Z,40.2
2019-04-01T04:10:35.575Z,40
2019-04-01T04:11:44.785Z,41.1
2019-04-01T04:12:53.891Z,42
2019-04-01T04:14:03.138Z,41.9
2019-04-01T04:15:12.280Z,42.9
2019-04-01T04:16:21.483Z,44.2
2019-04-01T04:17:30.628Z,43.1
2019-04-01T04:18:39.927Z,43.5
2019-04-01T04:19:48.980Z,44.6
2019-04-01T04:20:58.172Z,45.6
2019-04-01T04:22:07.374Z,47
2019-04-01T04:23:17.645Z,49.3
2019-04-01T04:24:26.807Z,51.3
2019-04-01T04:25:35.997Z,53.7
2019-04-01T04:26:45.140Z,53
2019-04-01T04:27:54.309Z,54.4
2019-04-01T04:29:03.502Z,54.3
2019-04-01T04:30:12.635Z,54.3
2019-04-01T04:31:21.861Z,54.2
2019-04-01T04:32:31.014Z,55.8
2019-04-01T04:33:40.138Z,58.1
2019-04-01T04:34:49.408Z,62.3
2019-04-01T04:35:58.460Z,63
2019-04-01T04:38:16.827Z,62.6
2019-04-01T04:39:25.941Z,62.4
2019-04-01T04:40:35.332Z,62.4
2019-04-01T04:41:44.280Z,62.2
2019-04-01T04:42:53.445Z,64.9
2019-04-01T04:44:02.584Z,64.2
2019-04-01T04:45:11.746Z,63.5
2019-04-01T04:46:21.579Z,64.5
2019-04-01T04:47:30.097Z,65.4
2019-04-01T04:48:39.204Z,64.6
2019-04-01T04:49:48.357Z,67.2
2019-04-01T04:50:57.493Z,66
2019-04-01T04:52:06.643Z,64.5
2019-04-01T04:53:15.859Z,63.5
2019-04-01T04:54:24.980Z,62.7
2019-04-01T04:55:34.105Z,63
2019-04-01T04:56:43.290Z,63
2019-04-01T04:57:52.422Z,63.1
2019-04-01T04:59:01.556Z,62.7
2019-04-01T05:00:10.869Z,61
2019-04-01T05:01:19.882Z,60.3
2019-04-01T05:02:29.039Z,56.8
2019-04-01T05:03:38.181Z,56.7
2019-04-01T05:04:47.319Z,55.8
2019-04-01T05:05:56.482Z,56
2019-04-01T05:07:05.674Z,54.8
2019-04-01T05:08:14.778Z,52.4
2019-04-01T05:09:23.959Z,50.6
2019-04-01T05:10:33.153Z,49.2
2019-04-01T05:11:42.389Z,48.5
2019-04-01T05:12:51.563Z,47.2
2019-04-01T05:14:01.360Z,46.1
2019-04-01T05:15:09.759Z,44.9
2019-04-01T05:16:18.958Z,43.6
2019-04-01T05:17:28.105Z,41.9
2019-04-01T05:18:37.301Z,40.2
2019-04-01T05:19:46.466Z,39.9
2019-04-01T05:20:55.641Z,38.7
2019-04-01T05:22:04.844Z,38.2
2019-04-01T05:23:14.099Z,37.1
2019-04-01T05:24:23.209Z,35.9
2019-04-01T05:25:32.428Z,35.3
2019-04-01T05:26:41.584Z,34.4
2019-04-01T05:27:50.914Z,32.5
2019-04-01T05:28:59.991Z,31.4
2019-04-01T05:30:09.316Z,30
2019-04-01T05:31:18.401Z,31.5
2019-04-01T05:32:27.590Z,32.4
2019-04-01T05:33:36.835Z,30.7
2019-04-01T05:34:46.005Z,30
2019-04-01T05:35:55.226Z,29.7
2019-04-01T05:37:04.624Z,29.2
2019-04-01T05:38:13.660Z,28.5
2019-04-01T05:39:22.930Z,28.5
2019-04-01T05:40:32.109Z,28
2019-04-01T05:41:41.363Z,27.6
2019-04-01T05:42:50.636Z,26.7
2019-04-01T05:44:02.600Z,26.3
2019-04-01T05:45:09.077Z,26.9
2019-04-01T05:46:18.332Z,26
2019-04-01T05:47:27.554Z,25.4
2019-04-01T05:48:36.808Z,25.3
2019-04-01T05:49:46.052Z,24.7
2019-04-01T05:50:55.370Z,25.1
2019-04-01T05:52:04.586Z,25.1
2019-04-01T05:53:13.877Z,24.2
2019-04-01T05:54:23.112Z,23.7
2019-04-01T05:55:32.378Z,23.8
2019-04-01T05:56:41.688Z,23.3
2019-04-01T05:57:50.967Z,22.6
2019-04-01T05:59:00.227Z,23.4
2019-04-01T06:00:09.518Z,23.6
2019-04-01T06:01:18.911Z,22.5
2019-04-01T06:02:28.111Z,22.3
2019-04-01T06:03:37.468Z,22
2019-04-01T06:04:46.711Z,22.3
2019-04-01T06:05:56.045Z,22.4
2019-04-01T06:07:05.509Z,22.8
2019-04-01T06:08:14.740Z,22.8
2019-04-01T06:09:23.992Z,24.6
2019-04-01T06:10:34.504Z,24
2019-04-01T06:11:43.789Z,24.7
2019-04-01T06:14:02.437Z,25
2019-04-01T06:15:11.730Z,23.8
2019-04-01T06:16:21.024Z,21.8
2019-04-01T06:17:30.422Z,23.7
2019-04-01T06:18:39.693Z,23.5
2019-04-01T06:19:49.007Z,24.1
2019-04-01T06:20:58.370Z,25
2019-04-01T06:22:08.009Z,24.3
2019-04-01T06:23:17.043Z,22.3
2019-04-01T06:24:26.318Z,23.1
2019-04-01T06:25:35.743Z,23
2019-04-01T06:26:45.060Z,21.8
2019-04-01T06:27:54.389Z,21.8
2019-04-01T06:29:03.678Z,23.2
2019-04-01T06:30:13.092Z,21.4
2019-04-01T06:31:22.381Z,21.8
2019-04-01T06:32:31.808Z,20.6
2019-04-01T06:33:41.084Z,21.8
2019-04-01T06:34:53.292Z,20.1
2019-04-01T06:35:59.840Z,19.6
2019-04-01T06:37:09.329Z,18.2
2019-04-01T06:38:18.478Z,19.1
2019-04-01T06:39:28.040Z,21.8
2019-04-01T06:40:37.237Z,22.6
2019-04-01T06:41:46.570Z,21.9
2019-04-01T06:42:55.941Z,22.2
2019-04-01T06:44:05.339Z,21
2019-04-01T06:45:14.661Z,22.1
2019-04-01T06:46:24.199Z,21.5
2019-04-01T06:47:33.368Z,19.5
2019-04-01T06:48:42.711Z,21
2019-04-01T06:49:52.068Z,19.3
2019-04-01T06:51:01.441Z,20.3
2019-04-01T06:52:11.478Z,20
2019-04-01T06:53:20.256Z,21.3
2019-04-01T06:54:29.503Z,20.7
2019-04-01T06:55:38.951Z,19.6
2019-04-01T06:56:48.280Z,20.4
2019-04-01T06:57:57.636Z,19.7
2019-04-01T06:59:07.009Z,19.8
2019-04-01T07:00:16.412Z,19.3
2019-04-01T07:01:25.716Z,19.4
2019-04-01T07:02:35.075Z,19.1
2019-04-01T07:03:44.457Z,18.5
2019-04-01T07:04:53.841Z,18.9
2019-04-01T07:06:03.202Z,19.2
2019-04-01T07:07:19.542Z,19
2019-04-01T07:08:21.899Z,18.7
2019-04-01T07:09:31.305Z,19
2019-04-01T07:10:40.660Z,19.1
2019-04-01T07:11:50.067Z,17.8
2019-04-01T07:12:59.431Z,16.7
2019-04-01T07:14:08.844Z,15.9
2019-04-01T07:15:18.214Z,16.4
2019-04-01T07:16:27.606Z,17.4
2019-04-01T07:17:37.032Z,17.9
2019-04-01T07:18:46.975Z,18.1
2019-04-01T07:19:55.854Z,17.3
2019-04-01T07:21:05.370Z,15.6
2019-04-01T07:22:14.680Z,14.7
2019-04-01T07:23:24.076Z,14.6
2019-04-01T07:24:33.450Z,16.8
2019-04-01T07:25:43.004Z,18.3
2019-04-01T07:26:52.290Z,18.5
2019-04-01T07:28:01.693Z,14.8
2019-04-01T07:29:11.192Z,14.5
2019-04-01T07:30:20.813Z,14.4
2019-04-01T07:31:29.967Z,17
2019-04-01T07:32:39.390Z,16.6
2019-04-01T07:33:48.848Z,16.3
2019-04-01T07:34:58.245Z,15.2
2019-04-01T07:36:07.715Z,16.3
2019-04-01T07:38:26.571Z,16.3
2019-04-01T07:39:35.992Z,14.5
2019-04-01T07:40:45.428Z,13.8
2019-04-01T07:41:55.069Z,13.5
2019-04-01T07:43:04.323Z,15.4
2019-04-01T07:44:13.758Z,13.3
2019-04-01T07:45:23.204Z,13.2
2019-04-01T07:46:32.713Z,11.4
2019-04-01T07:47:42.223Z,14.1
2019-04-01T07:48:51.647Z,13.1
2019-04-01T07:50:01.164Z,13.7
2019-04-01T07:51:10.522Z,12.7
2019-04-01T07:52:19.989Z,12.6
2019-04-01T07:53:29.474Z,12.3
2019-04-01T07:54:38.929Z,12.4
2019-04-01T07:55:48.398Z,11.3
2019-04-01T07:56:57.859Z,11.5
2019-04-01T07:58:07.380Z,11.7
2019-04-01T07:59:16.842Z,12.1
2019-04-01T08:00:26.402Z,12.1
2019-04-01T08:01:35.782Z,11.9
2019-04-01T08:02:49.302Z,10
2019-04-01T08:03:54.783Z,11.5
2019-04-01T08:05:04.251Z,12.2
2019-04-01T08:06:14.038Z,12
2019-04-01T08:07:23.189Z,12
2019-04-01T08:08:32.684Z,12
2019-04-01T08:09:42.132Z,12.6
2019-04-01T08:10:51.648Z,13.5
2019-04-01T08:12:01.254Z,14.1
2019-04-01T08:13:10.552Z,13.8
2019-04-01T08:14:20.025Z,10.8
2019-04-01T08:15:29.577Z,10.9
2019-04-01T08:16:39.037Z,8.7
2019-04-01T08:17:48.476Z,10.9
2019-04-01T08:18:57.980Z,11.1
2019-04-01T08:20:07.456Z,11.3
2019-04-01T08:21:16.979Z,11.2
2019-04-01T08:22:26.686Z,9.9
2019-04-01T08:23:36.259Z,10.3
2019-04-01T08:24:45.485Z,8.9
2019-04-01T08:25:55.017Z,8
2019-04-01T08:27:07.557Z,6.4
2019-04-01T08:28:14.107Z,9.7
2019-04-01T08:29:30.858Z,10.8
2019-04-01T08:30:33.209Z,9
2019-04-01T08:31:42.914Z,8.5
2019-04-01T08:32:52.228Z,8.8
2019-04-01T08:34:02.139Z,8.9
2019-04-01T08:35:11.315Z,9.5
2019-04-01T08:36:20.854Z,8.3
2019-04-01T08:37:30.418Z,9.3
2019-04-01T08:38:40.042Z,10.6
2019-04-01T08:39:49.569Z,10.1
2019-04-01T08:40:59.016Z,8.5
2019-04-01T08:42:08.615Z,10.2
2019-04-01T08:43:18.111Z,10.3
2019-04-01T08:45:37.187Z,8.9
2019-04-01T08:46:46.804Z,10.5
2019-04-01T08:47:56.280Z,10.3
2019-04-01T08:49:08.124Z,9
2019-04-01T08:50:15.390Z,9
2019-04-01T08:51:24.915Z,7.5
2019-04-01T08:52:34.494Z,8.9
2019-04-01T08:53:44.003Z,7.3
2019-04-01T08:54:56.463Z,6.7
2019-04-01T08:56:05.992Z,9
2019-04-01T08:57:15.589Z,9.3
2019-04-01T08:58:25.258Z,6.2
2019-04-01T08:59:34.708Z,5.1
2019-04-01T09:00:44.311Z,7.6
2019-04-01T09:01:53.828Z,8.7
2019-04-01T09:03:03.389Z,8.5
2019-04-01T09:04:12.953Z,7.3
2019-04-01T09:05:22.693Z,7.7
2019-04-01T09:06:32.205Z,8.9
2019-04-01T09:07:41.692Z,8.4
2019-04-01T09:08:51.410Z,7.1
2019-04-01T09:10:00.820Z,8.5
2019-04-01T09:11:10.398Z,8.8
2019-04-01T09:12:20.001Z,8.1
2019-04-01T09:13:29.602Z,7
2019-04-01T09:14:39.152Z,8.1
2019-04-01T09:15:48.655Z,7.8
2019-04-01T09:16:58.254Z,8.3
2019-04-01T09:18:07.756Z,7.7
2019-04-01T09:19:17.269Z,10.3
2019-04-01T09:20:26.838Z,8.3
2019-04-01T09:21:36.430Z,7.8
2019-04-01T09:22:45.921Z,6.2
2019-04-01T09:23:55.489Z,7.3
2019-04-01T09:25:06.087Z,8.4
2019-04-01T09:26:15.643Z,8.4
2019-04-01T09:27:25.214Z,7.9
2019-04-01T09:28:34.746Z,6
2019-04-01T09:29:44.337Z,5.9
2019-04-01T09:30:53.800Z,5.5
2019-04-01T09:32:03.384Z,4.1
2019-04-01T09:33:12.885Z,4.9
2019-04-01T09:34:22.452Z,6
2019-04-01T09:35:32.466Z,7
2019-04-01T09:36:41.635Z,7.3
2019-04-01T09:37:51.089Z,6.6
2019-04-01T09:39:00.664Z,6.4
2019-04-01T09:40:10.173Z,8
2019-04-01T09:41:19.808Z,7.7
2019-04-01T09:42:29.229Z,8.5
2019-04-01T09:43:38.789Z,6.8
2019-04-01T09:44:48.302Z,8.1
2019-04-01T09:45:57.887Z,8.8
2019-04-01T09:47:07.374Z,8.6
2019-04-01T09:48:16.842Z,8.9
2019-04-01T09:49:26.334Z,7.8
2019-04-01T09:50:36.028Z,9.2
2019-04-01T09:51:49.301Z,7.3
2019-04-01T09:52:54.871Z,8.9
2019-04-01T09:54:04.412Z,6.4
2019-04-01T09:55:14.120Z,4.8
2019-04-01T09:56:23.389Z,4.6
2019-04-01T09:57:33.376Z,5.8
2019-04-01T09:58:42.591Z,5.7
2019-04-01T09:59:51.966Z,4.1
2019-04-01T10:01:01.446Z,3.3
2019-04-01T10:02:11.035Z,3.8
2019-04-01T10:03:20.502Z,3.1
2019-04-01T10:04:30.059Z,3.8
2019-04-01T10:05:39.663Z,4.2
2019-04-01T10:06:49.109Z,6.6
2019-04-01T10:07:58.477Z,6.4
2019-04-01T10:09:07.961Z,5.3
2019-04-01T10:10:17.499Z,4.7
2019-04-01T10:11:26.935Z,3.1
2019-04-01T10:12:36.478Z,4.8
2019-04-01T10:13:45.920Z,5.7
2019-04-01T10:14:55.436Z,6
2019-04-01T10:17:14.473Z,7.5
2019-04-01T10:18:23.867Z,5.3
2019-04-01T10:19:33.349Z,3.7
2019-04-01T10:20:42.824Z,3.6
2019-04-01T10:21:52.584Z,4.1
2019-04-01T10:23:01.797Z,5.1
2019-04-01T10:24:11.285Z,5
2019-04-01T10:25:20.773Z,4.8
2019-04-01T10:26:30.280Z,4.5
2019-04-01T10:27:39.845Z,1.9
2019-04-01T10:28:49.455Z,1.8
2019-04-01T10:29:58.803Z,3.5
2019-04-01T10:31:08.254Z,4.9
2019-04-01T10:32:17.750Z,5.7
2019-04-01T10:33:27.221Z,5.4
2019-04-01T10:34:36.724Z,5.5
2019-04-01T10:35:46.216Z,6.6
2019-04-01T10:36:55.776Z,5.5
2019-04-01T10:38:05.231Z,4.5
2019-04-01T10:39:14.742Z,2
2019-04-01T10:40:24.137Z,1
2019-04-01T10:41:33.601Z,4.6
2019-04-01T10:42:43.105Z,4
2019-04-01T10:43:52.599Z,2.6
2019-04-01T10:45:02.223Z,2.6
2019-04-01T10:46:12.648Z,2.7
2019-04-01T10:47:21.174Z,1.5
2019-04-01T10:48:30.694Z,3.2
2019-04-01T10:49:40.350Z,3.1
2019-04-01T10:50:49.871Z,2.1
2019-04-01T10:51:59.201Z,2.3
2019-04-01T10:53:08.840Z,1
2019-04-01T10:54:18.178Z,2.7
2019-04-01T10:55:27.732Z,3.6
2019-04-01T10:56:37.106Z,1.8
2019-04-01T10:57:46.960Z,1
2019-04-01T11:00:05.683Z,2.3
2019-04-01T11:01:15.047Z,3
2019-04-01T11:02:24.798Z,3.1
2019-04-01T11:03:34.098Z,2.5
2019-04-01T11:04:43.522Z,3.4
2019-04-01T11:05:53.031Z,2.7
2019-04-01T11:07:02.817Z,2.6
2019-04-01T11:08:12.199Z,1.3
2019-04-01T11:09:31.679Z,1.2
2019-04-01T11:10:30.920Z,1.7
2019-04-01T11:11:40.403Z,2.5
2019-04-01T11:12:49.905Z,1.5
2019-04-01T11:13:59.445Z,3.6
2019-04-01T11:15:08.991Z,4.9
2019-04-01T11:16:18.447Z,4.4
2019-04-01T11:18:37.414Z,4.2
2019-04-01T11:19:46.889Z,2.4
2019-04-01T11:20:57.154Z,1.3
2019-04-01T11:22:05.898Z,2.6
2019-04-01T11:23:15.387Z,4.2
2019-04-01T11:24:24.879Z,3.9
2019-04-01T11:25:34.389Z,3.2
2019-04-01T11:26:43.827Z,2.6
2019-04-01T11:27:53.323Z,2.1
2019-04-01T11:29:02.819Z,4.1
2019-04-01T11:30:14.254Z,3.6
2019-04-01T11:31:22.058Z,2.6
2019-04-01T11:32:31.377Z,3.1
2019-04-01T11:33:40.989Z,1.7
2019-04-01T11:34:50.439Z,1.5
2019-04-01T11:35:59.891Z,2.3
2019-04-01T11:37:09.327Z,1
2019-04-01T11:38:18.862Z,1
2019-04-01T11:39:28.446Z,1
2019-04-01T11:40:39.200Z,1
2019-04-01T11:41:47.503Z,2
2019-04-01T11:42:57.005Z,1.5
2019-04-01T11:44:06.588Z,1
2019-04-01T11:45:16.086Z,1.2
2019-04-01T11:46:25.394Z,1.1
2019-04-01T11:47:35.418Z,1.1
2019-04-01T11:48:44.404Z,1
2019-04-01T11:49:53.943Z,1.2
2019-04-01T11:51:03.375Z,1.8
2019-04-01T11:52:15.987Z,1
2019-04-01T11:53:22.340Z,1
2019-04-01T11:54:31.822Z,1
2019-04-01T11:55:41.800Z,1.1
2019-04-01T11:56:50.870Z,1
2019-04-01T11:58:00.433Z,1
2019-04-01T11:59:09.844Z,1
2019-04-01T12:00:19.309Z,1
2019-04-01T12:01:28.955Z,1
2019-04-01T12:02:38.388Z,1
2019-04-01T12:03:47.809Z,1
2019-04-01T12:04:57.271Z,1
2019-04-01T12:06:06.835Z,1
2019-04-01T12:07:16.407Z,1.6
2019-04-01T12:08:25.777Z,1.9
2019-04-01T12:09:35.428Z,1
2019-04-01T12:10:44.807Z,1.4
2019-04-01T12:11:54.357Z,1
2019-04-01T12:13:03.788Z,1
2019-04-01T12:14:13.326Z,1
2019-04-01T12:15:22.825Z,1
2019-04-01T12:16:33.097Z,1
2019-04-01T12:17:42.474Z,1
2019-04-01T12:18:51.402Z,1
2019-04-01T12:20:00.972Z,1
2019-04-01T12:21:10.413Z,1
2019-04-01T12:22:20.094Z,1
2019-04-01T12:23:29.462Z,1
2019-04-01T12:24:40.499Z,1
2019-04-01T12:25:48.644Z,1
2019-04-01T12:26:58.198Z,1
2019-04-01T12:28:07.556Z,1
2019-04-01T12:29:17.184Z,1
2019-04-01T12:30:26.690Z,1
2019-04-01T12:31:36.179Z,1
2019-04-01T12:32:45.725Z,1
2019-04-01T12:33:55.500Z,1
2019-04-01T12:35:04.966Z,1
2019-04-01T12:36:14.433Z,1
2019-04-01T12:37:24.002Z,1
2019-04-01T12:38:33.493Z,1
2019-04-01T12:39:43.072Z,1
2019-04-01T12:40:52.628Z,1
2019-04-01T12:42:02.193Z,1
2019-04-01T12:43:11.759Z,1
2019-04-01T12:44:21.372Z,1
2019-04-01T12:45:30.913Z,1.6
2019-04-01T12:46:40.511Z,1
2019-04-01T12:47:50.149Z,1
2019-04-01T12:48:59.664Z,1.4
2019-04-01T12:50:09.267Z,1
2019-04-01T12:51:18.881Z,1.4
2019-04-01T12:52:28.428Z,1.4
2019-04-01T12:53:38.022Z,2.4
2019-04-01T12:54:47.582Z,2.9
2019-04-01T12:55:57.228Z,2.1
2019-04-01T12:57:06.761Z,2.8
2019-04-01T12:58:17.902Z,2.1
2019-04-01T12:59:25.891Z,2.2
2019-04-01T13:00:35.480Z,2.1
2019-04-01T13:01:45.104Z,1.8
2019-04-01T13:02:54.630Z,2.3
2019-04-01T13:04:04.587Z,1.7
2019-04-01T13:05:13.669Z,1.5
2019-04-01T13:06:23.314Z,2.6
2019-04-01T13:07:32.761Z,2.3
2019-04-01T13:08:42.320Z,2.6
2019-04-01T13:09:51.959Z,4.2
2019-04-01T13:11:01.429Z,3.9
2019-04-01T13:12:10.982Z,4
2019-04-01T13:13:22.938Z,4
2019-04-01T13:14:30.110Z,3.7
2019-04-01T13:15:39.672Z,3.9
2019-04-01T13:16:49.243Z,4.1
2019-04-01T13:17:58.813Z,3.8
2019-04-01T13:19:08.323Z,4.1
2019-04-01T13:20:17.914Z,4.2
2019-04-01T13:21:27.473Z,3.6
2019-04-01T13:22:38.438Z,3.8
2019-04-01T13:23:46.611Z,4.8
2019-04-01T13:24:56.194Z,4.3
2019-04-01T13:26:05.797Z,4.1
2019-04-01T13:27:15.476Z,4.1
2019-04-01T13:28:26.373Z,4.7
2019-04-01T13:29:34.509Z,5.2
2019-04-01T13:30:44.204Z,4.7
2019-04-01T13:31:53.748Z,4.1
2019-04-01T13:33:03.390Z,5.1
2019-04-01T13:34:12.928Z,5.5
2019-04-01T13:35:22.521Z,5
2019-04-01T13:36:32.118Z,4.5
2019-04-01T13:37:41.814Z,4
2019-04-01T13:38:51.407Z,4.5
2019-04-01T13:40:03.087Z,4.7
2019-04-01T13:41:13.562Z,4.6
2019-04-01T13:42:20.320Z,5
2019-04-01T13:43:29.879Z,4.3
2019-04-01T13:44:39.610Z,5
2019-04-01T13:45:50.584Z,5.1
2019-04-01T13:46:58.818Z,5.1
2019-04-01T13:48:08.483Z,5.1
2019-04-01T13:49:18.470Z,5.7
2019-04-01T13:50:27.790Z,4.7
2019-04-01T13:51:37.602Z,5.1
2019-04-01T13:52:47.158Z,4.8
2019-04-01T13:54:09.452Z,5.9
2019-04-01T13:55:06.604Z,5.2
2019-04-01T13:56:16.363Z,5.6
2019-04-01T13:57:26.017Z,5.1
2019-04-01T13:58:35.761Z,5.1
2019-04-01T13:59:50.229Z,5.2
2019-04-01T14:00:55.249Z,5.2
2019-04-01T14:02:05.011Z,4.8
2019-04-01T14:03:14.796Z,5.4
2019-04-01T14:04:24.561Z,3.9
2019-04-01T14:05:34.332Z,4.8
2019-04-01T14:06:44.418Z,4.9
2019-04-01T14:07:53.939Z,5.8
2019-04-01T14:09:03.718Z,5.4
2019-04-01T14:10:13.459Z,5.6
2019-04-01T14:11:23.265Z,5.1
2019-04-01T14:12:33.071Z,5.3
2019-04-01T14:13:42.872Z,5.8
2019-04-01T14:14:52.633Z,5.8
2019-04-01T14:16:02.457Z,5.9
2019-04-01T14:17:12.282Z,5.8
2019-04-01T14:18:22.116Z,5.5
2019-04-01T14:19:32.034Z,5.4
2019-04-01T14:20:41.636Z,5.6
2019-04-01T14:21:52.416Z,5
2019-04-01T14:23:01.246Z,5.3
2019-04-01T14:24:11.144Z,5.5
2019-04-01T14:25:20.852Z,5.3
2019-04-01T14:26:30.698Z,5.3
2019-04-01T14:27:41.895Z,5.4
2019-04-01T14:28:51.647Z,5.2
2019-04-01T14:30:01.513Z,4
2019-04-01T14:31:11.280Z,4.3
2019-04-01T14:32:21.042Z,5
2019-04-01T14:33:32.967Z,4.4
2019-04-01T14:34:40.704Z,5.2
2019-04-01T14:35:50.547Z,4.9
2019-04-01T14:37:00.458Z,5
2019-04-01T14:38:10.232Z,4.7
2019-04-01T14:39:20.046Z,4.9
2019-04-01T14:40:32.860Z,4
2019-04-01T14:41:39.729Z,4
2019-04-01T14:42:49.536Z,4.5
2019-04-01T14:43:59.431Z,4.8
2019-04-01T14:45:09.291Z,5
2019-04-01T14:46:19.079Z,5.5
2019-04-01T14:47:28.903Z,5.6
2019-04-01T14:48:38.766Z,4.9
2019-04-01T14:49:48.656Z,4
2019-04-01T14:50:58.493Z,3.7
2019-04-01T14:52:08.285Z,4
2019-04-01T14:53:18.011Z,4
2019-04-01T14:54:27.861Z,3.6
2019-04-01T14:55:37.647Z,4.5
2019-04-01T14:56:47.461Z,4.1
2019-04-01T14:58:00.527Z,4.4
2019-04-01T14:59:07.421Z,4.4
2019-04-01T15:00:16.882Z,4.1
2019-04-01T15:01:26.675Z,4.3
2019-04-01T15:02:36.524Z,4
2019-04-01T15:03:46.222Z,4.5
2019-04-01T15:04:56.179Z,4.7
2019-04-01T15:06:05.774Z,4.9
2019-04-01T15:07:18.575Z,4.2
2019-04-01T15:08:25.347Z,3.2
2019-04-01T15:09:35.140Z,3.5
2019-04-01T15:10:44.840Z,4.1
2019-04-01T15:11:54.654Z,4.9
2019-04-01T15:13:06.242Z,4.3
2019-04-01T15:14:14.130Z,5.4
2019-04-01T15:15:23.863Z,4.8
2019-04-01T15:16:33.667Z,4.7
2019-04-01T15:17:43.390Z,4.8
2019-04-01T15:18:53.091Z,4.2
2019-04-01T15:20:02.817Z,4
2019-04-01T15:21:12.602Z,4.2
2019-04-01T15:22:25.525Z,4.2
2019-04-01T15:23:32.419Z,3.6
2019-04-01T15:24:41.766Z,4
2019-04-01T15:25:54.708Z,3.6
2019-04-01T15:27:01.330Z,3.6
2019-04-01T15:28:10.907Z,4.1
2019-04-01T15:29:20.694Z,4.5
2019-04-01T15:30:32.173Z,4.6
2019-04-01T15:31:40.252Z,4.4
2019-04-01T15:32:49.864Z,4.4
2019-04-01T15:33:59.517Z,5.1
2019-04-01T15:35:09.211Z,4.5
2019-04-01T15:36:18.857Z,4.7
2019-04-01T15:37:32.398Z,4.6
2019-04-01T15:38:38.278Z,4.4
2019-04-01T15:39:49.905Z,4.7
2019-04-01T15:42:07.290Z,4.2
2019-04-01T15:43:16.886Z,3.7
2019-04-01T15:44:29.584Z,3.6
2019-04-01T15:45:36.184Z,4.2
2019-04-01T15:46:45.847Z,4
2019-04-01T15:47:55.472Z,3.6
2019-04-01T15:49:07.350Z,4.9
2019-04-01T15:50:28.986Z,5
2019-04-01T15:51:24.391Z,4.4
2019-04-01T15:52:34.902Z,4.6
2019-04-01T15:53:43.597Z,4.9
2019-04-01T15:54:53.281Z,5.1
2019-04-01T15:56:02.804Z,4.8
2019-04-01T15:57:15.450Z,4.8
2019-04-01T15:58:21.990Z,4.5
2019-04-01T15:59:31.580Z,4.9
2019-04-01T16:00:41.165Z,4.9
2019-04-01T16:01:51.286Z,4.9